Ipswich, Australia
Current Conditions -  °F | °C
As of 9:30 AM on Sunday 21 Dec 2014 (Local Time) from YAMB Reporting Station
Scattered Clouds Scattered Clouds  
Wind Chill: 81°   Ceiling: Unl
Heat Index: 82°   Visibility: 6mi
Dew Point: 63°   Wind: 6mph
Humidity: 54%   Direction: 30°NNE
Pressure: 30.06"   Gusts: NA
Location:  27.61°S, 152.76°E
Report Text: YAMB 202330Z AUTO 03005KT 9999 // SCT036 SCT061 27/17 Q1018
Loading
Personal Weather Stations






























Interactive Weather Map New forecast layout! Learn more

10-Day Weather Forecast

Advertisements
Track Severe Weather on mobile